EDT,Max TemperatureF,Mean TemperatureF,Min TemperatureF,Max Dew PointF,MeanDew PointF,Min DewpointF,Max Humidity, Mean Humidity, Min Humidity, Max Sea Level PressureIn, Mean Sea Level PressureIn, Min Sea Level PressureIn, Max VisibilityMiles, Mean VisibilityMiles, Min VisibilityMiles, Max Wind SpeedMPH, Mean Wind SpeedMPH, Max Gust SpeedMPH,PrecipitationIn, CloudCover, Events, WindDirDegrees
2008-9-1,75,69,63,70,67,63,100,87,73,30.27,30.19,30.12,9,4,1,10,2,13,0.25,6,Rain,151
2008-9-2,81,71,61,65,63,61,100,76,51,30.22,30.16,30.04,10,4,0,12,3,14,0.00,5,Fog,142
2008-9-3,83,71,58,64,59,49,100,66,31,30.14,30.09,29.96,10,3,0,10,2,12,0.00,2,Fog,174
2008-9-4,81,68,54,61,56,51,100,70,39,30.09,30.04,29.94,10,4,0,15,5,18,0.00,2,Fog,161
2008-9-5,84,71,58,63,59,52,100,67,34,30.04,29.94,29.83,10,8,1,9,2,13,0.00,0,,122
2008-9-6,83,73,62,64,62,57,87,69,51,30.00,29.87,29.75,10,10,10,20,9,24,0.00,1,,340
2008-9-7,85,72,59,65,61,55,100,69,37,30.16,30.09,30.01,10,7,0,14,4,16,0.00,3,Fog,331
2008-9-8,84,72,59,69,64,59,96,74,51,30.22,30.13,30.07,10,9,4,13,4,16,T,1,,174
2008-9-9,77,72,66,69,67,65,97,81,64,30.15,30.08,30.01,10,8,5,14,4,16,0.05,4,Rain-Thunderstorm,175
2008-9-10,78,71,64,71,65,62,100,85,69,30.28,30.16,30.08,10,7,1,15,3,18,0.72,6,Rain,107
2008-9-11,75,69,63,67,64,63,100,90,79,30.33,30.25,30.18,10,6,2,13,5,15,0.05,8,Rain,168
2008-9-12,80,73,66,68,67,66,100,84,67,30.30,30.20,30.07,10,7,1,14,6,16,0.02,7,Rain,161
2008-9-13,85,76,66,68,67,65,100,76,51,30.19,30.10,29.98,10,6,0,15,4,18,0.00,5,Fog,165
2008-9-14,82,74,66,68,66,65,100,79,58,30.00,29.92,29.86,10,10,7,23,9,26,0.00,1,,175
2008-9-15,76,70,63,67,61,57,93,75,57,30.04,29.97,29.86,10,10,10,20,12,23,0.01,6,Rain,341
2008-9-16,64,63,61,60,58,57,100,89,78,30.21,30.11,30.03,10,9,5,13,4,16,0.10,8,Rain,356
2008-9-17,70,63,56,58,56,53,100,80,59,30.24,30.16,30.13,10,10,7,12,3,15,T,6,,169
2008-9-18,78,66,54,59,55,46,100,67,33,30.28,30.21,30.16,10,4,0,9,3,14,0.00,4,Fog,340
2008-9-19,73,62,50,56,53,50,100,75,49,30.35,30.29,30.23,10,6,0,10,2,14,0.00,2,Fog,110
2008-9-20,72,63,54,55,54,51,100,75,49,30.31,30.24,30.17,10,9,5,12,3,16,0.00,4,,148
2008-9-21,70,61,52,58,54,51,100,81,61,30.32,30.27,30.22,10,7,1,10,1,12,T,2,,160
2008-9-22,78,64,50,55,52,45,100,67,33,30.36,30.30,30.23,10,7,0,8,3,12,T,3,Fog,294
2008-9-23,72,60,50,56,52,48,96,76,49,30.41,30.33,30.28,10,9,6,10,1,,0.00,2,Rain,106
2008-9-24,73,60,48,53,43,31,90,61,27,30.35,30.28,30.19,10,10,7,12,3,,0.00,1,,360
2008-9-25,73,60,46,50,45,41,90,64,34,30.23,30.13,29.98,10,10,10,15,7,16,0.00,3,,339
2008-9-26,64,60,57,59,56,50,96,88,60,29.94,29.87,29.81,10,5,2,17,14,24,0.46,8,Rain,343
2008-9-27,73,66,59,60,58,56,100,86,55,29.97,29.91,29.85,10,9,2,9,4,,0.00,7,,334
2008-9-28,75,68,62,61,60,57,94,80,53,30.05,30.00,29.94,10,10,9,14,7,18,0.00,5,,348
2008-9-29,77,65,55,58,56,53,100,88,45,30.15,30.08,29.97,10,5,0,8,4,,0.00,5,Fog,328
2008-9-30,75,63,51,58,54,49,100,80,48,29.99,29.91,29.82,10,9,6,9,3,,0.00,2,,357